Saturday, October 25, 2014, 10:51 PM EDT

KIPT, Williamsport-lycoming County

Location: Montoursville, PA, United States Lat: 41.25
Local Time: 10:51 PM EDT ( 2:51 GMT) Lon: -76.917
Time Zone: US/Eastern Elev: 528 ft

Show me the last for .
Show Decoded

2014-10-25 21:54 METAR KIPT 260154Z 27011G20KT 10SM FEW046 BKN060 OVC085 17/09 A2962 =
2014-10-25 20:54 METAR KIPT 260054Z 34003KT 10SM SCT050 BKN060 OVC095 16/09 A2961 RMK AO2 SLP028
                 T01610089 =
2014-10-25 19:54 METAR KIPT 252354Z 23010KT 10SM CLR 18/08 A2962 RMK AO2 SLP029 T01780083 10211
                 20167 58012 =
2014-10-25 18:54 METAR KIPT 252254Z 27007KT 10SM CLR 17/08 A2964 RMK AO2 SLP036 T01720083 =
2014-10-25 17:54 METAR KIPT 252154Z 25008KT 10SM BKN065 19/08 A2964 RMK AO2 SLP036 T01890078 =
2014-10-25 16:54 METAR KIPT 252054Z 26012KT 10SM BKN065 21/07 A2965 RMK AO2 SLP042 T02060067
                 56027 =
2014-10-25 15:54 METAR KIPT 251954Z 25009G20KT 10SM BKN070 20/07 A2967 RMK AO2 SLP048 T02000067 =
2014-10-25 14:54 METAR KIPT 251854Z 25011G18KT 10SM CLR 21/07 A2968 RMK AO2 PRESFR SLP050
                 T02110067 =
2014-10-25 13:54 METAR KIPT 251754Z 26010KT 10SM CLR 20/06 A2973 RMK AO2 SLP068 T02000061 10200
                 20050 58043 =
2014-10-25 12:54 METAR KIPT 251654Z 26014G19KT 10SM CLR 18/06 A2978 RMK AO2 SLP083 T01830061 =
2014-10-25 11:54 METAR KIPT 251554Z 25007KT 10SM CLR 16/06 A2982 RMK AO2 SLP099 T01560056 =
2014-10-25 10:54 METAR KIPT 251454Z 25005KT 10SM SCT050 12/05 A2986 RMK AO2 SLP113 T01220050
                 58017 =
2014-10-25 09:54 METAR KIPT 251354Z 00000KT 10SM OVC050 09/04 A2990 RMK AO2 SLP125 T00890044 =
2014-10-25 08:54 METAR KIPT 251254Z 00000KT 10SM SCT050 07/02 A2991 =
2014-10-25 07:54 METAR KIPT 251154Z 00000KT 10SM OVC050 06/02 A2991 RMK AO2 SLP130 T00560017
                 10072 20039 58002 =
2014-10-25 06:54 METAR KIPT 251054Z 00000KT 10SM OVC055 06/02 A2992 RMK AO2 SLP131 T00560017 =
2014-10-25 05:54 METAR KIPT 250954Z AUTO 00000KT 10SM OVC060 05/01 A2992 RMK AO2 SLP133 T00500011
                 =
2014-10-25 04:54 METAR KIPT 250854Z AUTO 33003KT 10SM FEW060 04/01 A2992 RMK AO2 SLP131 T00390006
                 58003 =
2014-10-25 03:54 METAR KIPT 250754Z AUTO 00000KT 10SM CLR 05/01 A2993 RMK AO2 SLP136 T00500006 =
2014-10-25 02:54 METAR KIPT 250654Z AUTO 34005KT 10SM CLR 06/01 A2994 RMK AO2 SLP137 T00610006 =
2014-10-25 01:54 METAR KIPT 250554Z AUTO 28006KT 10SM CLR 08/02 A2993 RMK AO2 SLP134 T00780017
                 10156 20072 58002 =
2014-10-25 00:54 METAR KIPT 250454Z AUTO 27005KT 10SM CLR 08/01 A2993 RMK AO2 SLP135 T00830011
                 402170083 =
2014-10-24 23:54 METAR KIPT 250354Z AUTO 28008KT 10SM CLR 10/01 A2993 RMK AO2 SLP136 T01000011 =
2014-10-24 22:54 METAR KIPT 250254Z AUTO 28008KT 10SM CLR 11/01 A2993 =

Support USWX by starting your Amazon purchase here.